Time;durP1;ratioP1;P1;durP2;ratioP2;P2;SDS_P1;SDS_P2;PMS_P1;PMS_P2;Temp;Humidity;BMP_temperature;BMP_pressure;BME280_temperature;BME280_humidity;BME280_pressure;Samples;Min_cycle;Max_cycle;Signal;HPM_P1;HPM_P2
2023/10/27 00:01:13;;;;;;;5.07;1.40;;;13.80;99.90;;;;;;4245522;27;20123;-57
2023/10/27 00:03:17;;;;;;;5.85;1.80;;;13.90;99.90;;;;;;4264029;27;20051;-58
2023/10/27 00:05:19;;;;;;;2.60;1.23;;;13.90;99.90;;;;;;4263954;27;20042;-59
2023/10/27 00:07:21;;;;;;;4.97;1.60;;;13.80;99.90;;;;;;4263819;27;20125;-59
2023/10/27 00:09:24;;;;;;;2.78;1.45;;;13.80;99.90;;;;;;4263933;27;20057;-59
2023/10/27 00:11:27;;;;;;;5.75;2.30;;;13.80;99.90;;;;;;4263647;27;20050;-58
2023/10/27 00:13:29;;;;;;;6.30;2.60;;;13.80;99.90;;;;;;4263793;27;20042;-58
2023/10/27 00:15:31;;;;;;;4.05;1.92;;;13.80;99.90;;;;;;4264157;27;20130;-59
2023/10/27 00:17:33;;;;;;;6.93;2.35;;;13.80;99.90;;;;;;4263993;27;20046;-59
2023/10/27 00:19:37;;;;;;;4.15;1.90;;;13.80;99.90;;;;;;4263687;27;20464;-59
2023/10/27 00:21:39;;;;;;;4.40;1.80;;;13.80;99.90;;;;;;4264000;27;20054;-58
2023/10/27 00:23:41;;;;;;;6.32;2.22;;;13.80;99.90;;;;;;4263676;27;20047;-59
2023/10/27 00:25:43;;;;;;;7.28;2.63;;;13.80;99.90;;;;;;4263317;27;20113;-59
2023/10/27 00:27:45;;;;;;;5.05;1.95;;;13.80;99.90;;;;;;4265302;27;20055;-59
2023/10/27 00:29:47;;;;;;;7.65;2.15;;;13.80;99.90;;;;;;4267114;27;20049;-59
2023/10/27 00:31:49;;;;;;;9.98;2.85;;;13.80;99.90;;;;;;4266831;27;20049;-58
2023/10/27 00:33:51;;;;;;;9.93;2.20;;;13.70;99.90;;;;;;4266666;27;20141;-59
2023/10/27 00:35:55;;;;;;;6.68;2.22;;;13.70;99.90;;;;;;4266864;27;20133;-59
2023/10/27 00:37:59;;;;;;;5.50;2.40;;;13.70;99.90;;;;;;4266660;27;20076;-59
2023/10/27 00:40:02;;;;;;;5.72;2.60;;;13.70;99.90;;;;;;4266310;27;20414;-59
2023/10/27 00:42:04;;;;;;;6.45;2.55;;;13.70;99.90;;;;;;4266416;27;20059;-59
2023/10/27 00:44:06;;;;;;;11.23;2.83;;;13.70;99.90;;;;;;4248347;27;20094;-59
2023/10/27 00:46:09;;;;;;;8.23;2.83;;;13.70;99.90;;;;;;4266833;27;20507;-59
2023/10/27 00:48:11;;;;;;;7.25;2.38;;;13.70;99.90;;;;;;4266735;27;20070;-59
2023/10/27 00:50:13;;;;;;;8.18;2.70;;;13.70;99.90;;;;;;4266427;27;20054;-59
2023/10/27 00:52:18;;;;;;;9.52;3.03;;;13.80;99.90;;;;;;4266533;27;20042;-59
2023/10/27 00:54:21;;;;;;;6.55;2.28;;;13.80;99.90;;;;;;4266462;27;20174;-59
2023/10/27 00:56:26;;;;;;;7.22;2.22;;;13.70;99.90;;;;;;4266641;27;20479;-59
2023/10/27 00:58:28;;;;;;;8.45;2.30;;;13.70;99.90;;;;;;4266369;27;20050;-58
2023/10/27 01:00:31;;;;;;;6.55;2.65;;;13.70;99.90;;;;;;4266703;27;20078;-59
2023/10/27 01:02:33;;;;;;;5.95;2.28;;;13.70;99.90;;;;;;4266514;27;20527;-59
2023/10/27 01:04:35;;;;;;;9.00;2.42;;;13.80;99.90;;;;;;4266262;27;20047;-59
2023/10/27 01:06:37;;;;;;;7.40;2.35;;;13.70;99.90;;;;;;4266181;27;20103;-59
2023/10/27 01:08:41;;;;;;;8.25;2.35;;;13.70;99.90;;;;;;4266310;27;20476;-59
2023/10/27 01:10:43;;;;;;;9.88;3.45;;;13.70;99.90;;;;;;4265741;27;20464;-58
2023/10/27 01:12:47;;;;;;;13.38;3.47;;;13.80;99.90;;;;;;4266210;27;20127;-59
2023/10/27 01:14:49;;;;;;;11.00;3.03;;;13.80;99.90;;;;;;4266223;27;20555;-58
2023/10/27 01:16:51;;;;;;;10.10;2.63;;;13.80;99.90;;;;;;4266049;27;20071;-58
2023/10/27 01:18:54;;;;;;;11.05;3.55;;;13.70;99.90;;;;;;4266208;27;20054;-58
2023/10/27 01:20:56;;;;;;;9.45;2.67;;;13.70;99.90;;;;;;4265870;27;20043;-58
2023/10/27 01:23:02;;;;;;;9.90;2.63;;;13.70;99.90;;;;;;4266046;27;20043;-58
2023/10/27 01:25:06;;;;;;;5.47;2.20;;;13.70;99.90;;;;;;4265619;27;20114;-59
2023/10/27 01:27:08;;;;;;;7.32;2.30;;;13.70;99.90;;;;;;4266129;27;20103;-59
2023/10/27 01:29:10;;;;;;;8.88;2.95;;;13.70;99.90;;;;;;4266001;27;20043;-59
2023/10/27 01:31:12;;;;;;;11.45;3.22;;;13.70;99.90;;;;;;4265842;27;20047;-59
2023/10/27 01:33:14;;;;;;;11.10;3.65;;;13.70;99.90;;;;;;4266026;27;20444;-58
2023/10/27 01:35:19;;;;;;;19.00;3.58;;;13.70;99.90;;;;;;4266115;27;20449;-58
2023/10/27 01:37:21;;;;;;;9.48;2.72;;;13.70;99.90;;;;;;4247390;27;20100;-58
2023/10/27 01:39:24;;;;;;;10.57;3.67;;;13.70;99.90;;;;;;4264189;27;20107;-59
2023/10/27 01:41:27;;;;;;;12.52;3.35;;;13.60;99.90;;;;;;4266015;27;20530;-59
2023/10/27 01:43:29;;;;;;;10.60;2.80;;;13.60;99.90;;;;;;4265780;27;20043;-60
2023/10/27 01:45:31;;;;;;;7.05;2.25;;;13.60;99.90;;;;;;4265655;27;20047;-62
2023/10/27 01:47:33;;;;;;;7.13;2.58;;;13.60;99.90;;;;;;4265693;27;20087;-59
2023/10/27 01:49:35;;;;;;;13.50;2.50;;;13.60;99.90;;;;;;4265725;27;20047;-58
2023/10/27 01:51:37;;;;;;;9.52;2.00;;;13.60;99.90;;;;;;4265599;27;20038;-58
2023/10/27 01:53:39;;;;;;;12.07;2.80;;;13.60;99.90;;;;;;4265447;27;20053;-59
2023/10/27 01:55:43;;;;;;;8.25;2.20;;;13.60;99.90;;;;;;4265609;27;20407;-59
2023/10/27 01:57:45;;;;;;;10.63;2.55;;;13.60;99.90;;;;;;4265518;27;20070;-58
2023/10/27 01:59:47;;;;;;;10.55;3.08;;;13.50;99.90;;;;;;4265479;27;20411;-58
2023/10/27 02:01:49;;;;;;;10.13;2.30;;;13.50;99.90;;;;;;4265562;27;20053;-59
2023/10/27 02:03:51;;;;;;;8.43;2.47;;;13.50;99.90;;;;;;4247196;27;20421;-59
2023/10/27 02:05:53;;;;;;;12.55;3.35;;;13.50;99.90;;;;;;4265750;27;20047;-59
2023/10/27 02:07:56;;;;;;;8.65;2.40;;;13.50;99.90;;;;;;4265200;27;20038;-58
2023/10/27 02:10:01;;;;;;;9.73;2.40;;;13.50;99.90;;;;;;4265168;27;20043;-59
2023/10/27 02:12:07;;;;;;;13.07;3.60;;;13.50;99.90;;;;;;4265435;27;20057;-59
2023/10/27 02:14:09;;;;;;;11.23;3.03;;;13.50;99.90;;;;;;4265112;27;20544;-59
2023/10/27 02:16:11;;;;;;;10.63;3.00;;;13.50;99.90;;;;;;4246984;27;20047;-59
2023/10/27 02:18:14;;;;;;;9.27;2.63;;;13.40;99.90;;;;;;4265112;27;20381;-58
2023/10/27 02:20:16;;;;;;;10.43;2.78;;;13.30;99.90;;;;;;4265065;27;20047;-58
2023/10/27 02:22:18;;;;;;;10.63;3.10;;;13.30;99.90;;;;;;4264825;27;20051;-58
2023/10/27 02:24:20;;;;;;;10.45;2.45;;;13.30;99.90;;;;;;4265279;27;20365;-61
2023/10/27 02:26:22;;;;;;;11.68;3.20;;;13.20;99.90;;;;;;4265122;27;20084;-58
2023/10/27 02:28:26;;;;;;;8.90;2.50;;;13.20;99.90;;;;;;4265024;27;20047;-61
2023/10/27 02:30:28;;;;;;;10.75;2.40;;;13.20;99.90;;;;;;4265145;27;20404;-59
2023/10/27 02:32:30;;;;;;;8.60;1.98;;;13.10;99.90;;;;;;4265127;27;20460;-59
2023/10/27 02:34:32;;;;;;;13.32;2.70;;;13.20;99.90;;;;;;4265029;27;20449;-59
2023/10/27 02:36:34;;;;;;;12.93;2.15;;;13.10;99.90;;;;;;4264751;27;20042;-58
2023/10/27 02:38:36;;;;;;;18.90;2.75;;;13.00;99.90;;;;;;4264900;27;20057;-59
2023/10/27 02:40:38;;;;;;;9.98;2.65;;;13.10;99.90;;;;;;4264703;27;20081;-59
2023/10/27 02:42:42;;;;;;;13.27;2.35;;;13.10;99.90;;;;;;4264513;27;20629;-58
2023/10/27 02:44:46;;;;;;;14.80;2.70;;;13.00;99.90;;;;;;4264788;27;20046;-61
2023/10/27 02:46:49;;;;;;;11.45;2.15;;;13.00;99.90;;;;;;4246692;27;20162;-59
2023/10/27 02:48:51;;;;;;;11.48;2.47;;;12.90;99.90;;;;;;4264949;27;20053;-59
2023/10/27 02:50:53;;;;;;;7.93;2.42;;;12.90;99.90;;;;;;4264059;27;20123;-59
2023/10/27 02:52:56;;;;;;;14.38;2.63;;;12.90;99.90;;;;;;4264864;27;20054;-59
2023/10/27 02:54:58;;;;;;;10.43;2.25;;;12.80;99.90;;;;;;4264643;27;20049;-59
2023/10/27 02:57:00;;;;;;;10.38;2.33;;;12.80;99.90;;;;;;4264605;27;20046;-59
2023/10/27 02:59:05;;;;;;;12.98;2.95;;;12.90;99.90;;;;;;4264752;27;20070;-60
2023/10/27 03:01:09;;;;;;;;;;;12.80;99.90;;;;;;4265163;27;20046;-59
2023/10/27 03:03:14;;;;;;;10.30;2.13;;;12.80;99.90;;;;;;4264334;27;19998;-59
2023/10/27 03:05:17;;;;;;;7.68;2.15;;;12.70;99.90;;;;;;4264140;27;20161;-59
2023/10/27 03:07:19;;;;;;;10.13;2.35;;;12.70;99.90;;;;;;4264654;27;20049;-59
2023/10/27 03:09:21;;;;;;;8.18;2.47;;;12.70;99.90;;;;;;4264537;27;20387;-59
2023/10/27 03:11:23;;;;;;;10.73;2.40;;;12.70;99.90;;;;;;4264435;27;20046;-58
2023/10/27 03:13:27;;;;;;;13.75;2.35;;;12.70;99.90;;;;;;4264423;27;20051;-59
2023/10/27 03:15:29;;;;;;;8.43;2.50;;;12.70;99.90;;;;;;4264253;27;20043;-59
2023/10/27 03:17:32;;;;;;;19.48;2.65;;;12.70;99.90;;;;;;4264447;27;20384;-59
2023/10/27 03:19:34;;;;;;;10.60;2.83;;;12.70;99.90;;;;;;4263979;27;20395;-62
2023/10/27 03:21:37;;;;;;;12.13;2.78;;;12.70;99.90;;;;;;4264270;27;20046;-61
2023/10/27 03:23:39;;;;;;;13.52;3.25;;;12.70;99.90;;;;;;4264073;27;20480;-58
2023/10/27 03:25:41;;;;;;;13.43;2.80;;;12.70;99.90;;;;;;4264152;27;20050;-59
2023/10/27 03:27:46;;;;;;;9.98;2.63;;;12.60;99.90;;;;;;4264839;27;20046;-64
2023/10/27 03:29:48;;;;;;;13.57;2.67;;;12.60;99.90;;;;;;4264540;27;20042;-59
2023/10/27 03:31:50;;;;;;;9.65;1.90;;;12.60;99.90;;;;;;4264316;27;20510;-59
2023/10/27 03:33:53;;;;;;;12.15;2.67;;;12.60;99.90;;;;;;4263989;27;20047;-58
2023/10/27 03:35:55;;;;;;;7.00;2.30;;;12.60;99.90;;;;;;4264255;27;20099;-59
2023/10/27 03:37:59;;;;;;;12.85;2.97;;;12.60;99.90;;;;;;4264287;27;20542;-59
2023/10/27 03:40:04;;;;;;;10.82;2.67;;;12.60;99.90;;;;;;4264211;27;20043;-59
2023/10/27 03:42:07;;;;;;;10.52;3.35;;;12.60;99.90;;;;;;4263890;27;20042;-59
2023/10/27 03:44:09;;;;;;;15.52;3.10;;;12.60;99.90;;;;;;4264285;27;20062;-59
2023/10/27 03:46:11;;;;;;;15.35;2.85;;;12.60;99.90;;;;;;4264317;27;20527;-59
2023/10/27 03:48:14;;;;;;;18.75;3.80;;;12.60;99.90;;;;;;4264348;27;20043;-58
2023/10/27 03:50:18;;;;;;;15.52;3.58;;;12.60;99.90;;;;;;4263987;27;20043;-60
2023/10/27 03:52:20;;;;;;;16.65;3.58;;;12.60;99.90;;;;;;4264200;27;20125;-58
2023/10/27 03:54:22;;;;;;;18.05;3.35;;;12.60;99.90;;;;;;4264226;27;20042;-59
2023/10/27 03:56:24;;;;;;;10.68;3.13;;;12.70;99.90;;;;;;4263923;27;20449;-58
2023/10/27 03:58:26;;;;;;;21.10;3.67;;;12.70;99.90;;;;;;4264180;27;20152;-58
2023/10/27 04:00:47;;;;;;;17.50;2.83;;;12.70;99.90;;;;;;4263838;27;20047;-58
2023/10/27 04:02:49;;;;;;;10.35;2.85;;;12.70;99.90;;;;;;4265651;27;20050;-57
2023/10/27 04:04:51;;;;;;;14.50;2.95;;;12.70;99.90;;;;;;4267356;27;20087;-58
2023/10/27 04:06:56;;;;;;;18.55;3.78;;;12.70;99.90;;;;;;4267385;27;20042;-58
2023/10/27 04:08:59;;;;;;;16.67;3.00;;;12.80;99.90;;;;;;4267383;27;20046;-57
2023/10/27 04:11:01;;;;;;;16.20;3.53;;;12.80;99.90;;;;;;4267622;27;20468;-64
2023/10/27 04:13:04;;;;;;;13.90;4.03;;;12.80;99.90;;;;;;4267421;27;20095;-61
2023/10/27 04:15:08;;;;;;;17.30;3.72;;;12.80;99.90;;;;;;4267215;27;20090;-59
2023/10/27 04:17:10;;;;;;;15.20;2.90;;;12.80;99.90;;;;;;4267240;27;20543;-58
2023/10/27 04:19:12;;;;;;;17.92;3.97;;;12.80;99.90;;;;;;4266835;27;20138;-59
2023/10/27 04:21:17;;;;;;;14.13;3.38;;;12.80;99.90;;;;;;4267256;27;20043;-59
2023/10/27 04:23:21;;;;;;;18.88;3.20;;;12.80;99.90;;;;;;4266864;27;20053;-59
2023/10/27 04:25:24;;;;;;;14.88;3.35;;;12.80;99.90;;;;;;4266947;27;20436;-59
2023/10/27 04:27:28;;;;;;;14.48;3.90;;;12.80;99.90;;;;;;4266948;27;20158;-60
2023/10/27 04:29:31;;;;;;;13.48;3.25;;;12.80;99.90;;;;;;4267326;27;20042;-59
2023/10/27 04:31:33;;;;;;;18.92;3.15;;;12.70;99.90;;;;;;4266857;27;20049;-62
2023/10/27 04:33:38;;;;;;;17.00;3.25;;;12.70;99.90;;;;;;4266713;27;20411;-59
2023/10/27 04:35:40;;;;;;;19.90;4.28;;;12.70;99.90;;;;;;4266845;27;20107;-59
2023/10/27 04:37:42;;;;;;;12.05;2.90;;;12.80;99.90;;;;;;4248404;27;20456;-58
2023/10/27 04:39:46;;;;;;;17.17;2.95;;;12.80;99.90;;;;;;4266738;27;20046;-59
2023/10/27 04:41:48;;;;;;;16.63;3.42;;;12.80;99.90;;;;;;4266602;27;20126;-59
2023/10/27 04:43:50;;;;;;;15.43;3.35;;;12.80;99.90;;;;;;4266826;27;20410;-59
2023/10/27 04:45:52;;;;;;;17.35;3.72;;;12.80;99.90;;;;;;4266959;27;20047;-59
2023/10/27 04:47:54;;;;;;;16.27;2.55;;;12.80;99.90;;;;;;4266436;27;20078;-59
2023/10/27 04:49:57;;;;;;;17.33;3.50;;;12.80;99.90;;;;;;4248505;27;20524;-58
2023/10/27 04:51:59;;;;;;;18.15;3.65;;;12.90;99.90;;;;;;4266788;27;20126;-62
2023/10/27 04:54:03;;;;;;;19.55;3.42;;;12.90;99.90;;;;;;4266630;27;20130;-64
2023/10/27 04:56:06;;;;;;;19.58;4.07;;;12.90;99.90;;;;;;4266514;27;20060;-59
2023/10/27 04:58:08;;;;;;;16.45;3.65;;;12.90;99.90;;;;;;4266450;27;20134;-65
2023/10/27 05:00:12;;;;;;;17.45;3.60;;;12.90;99.90;;;;;;4266531;27;20039;-60
2023/10/27 05:02:14;;;;;;;14.70;2.95;;;12.90;99.90;;;;;;4266336;27;20050;-59
2023/10/27 05:04:16;;;;;;;21.15;3.92;;;12.90;99.90;;;;;;4266396;27;20046;-59
2023/10/27 05:06:18;;;;;;;19.63;3.30;;;12.90;99.90;;;;;;4266269;27;20043;-59
2023/10/27 05:08:20;;;;;;;15.70;3.33;;;12.90;99.90;;;;;;4266343;27;20485;-59
2023/10/27 05:10:22;;;;;;;19.40;3.53;;;12.90;99.90;;;;;;4266416;27;20047;-60
2023/10/27 05:12:26;;;;;;;14.60;3.28;;;12.90;99.90;;;;;;4266260;27;20043;-59
2023/10/27 05:14:28;;;;;;;16.77;3.05;;;12.90;99.90;;;;;;4266174;27;20043;-61
2023/10/27 05:16:30;;;;;;;20.20;3.97;;;12.80;99.90;;;;;;4266476;27;20476;-60
2023/10/27 05:18:33;;;;;;;16.08;3.10;;;12.80;99.90;;;;;;4266357;27;20468;-60
2023/10/27 05:20:38;;;;;;;17.13;2.95;;;12.80;99.90;;;;;;4266065;27;20544;-59
2023/10/27 05:22:40;;;;;;;;;;;12.80;99.90;;;;;;4266671;27;20114;-59
2023/10/27 05:24:42;;;;;;;16.85;3.20;;;12.80;99.90;;;;;;4266047;27;19919;-59
2023/10/27 05:26:44;;;;;;;15.75;2.95;;;12.70;99.90;;;;;;4266187;27;20047;-59
2023/10/27 05:28:48;;;;;;;17.02;3.13;;;12.70;99.90;;;;;;4265994;27;20122;-59
2023/10/27 05:30:51;;;;;;;16.95;3.53;;;12.80;99.90;;;;;;4265680;27;20126;-59
2023/10/27 05:32:53;;;;;;;16.58;3.40;;;12.70;99.90;;;;;;4265823;27;20065;-60
2023/10/27 05:34:56;;;;;;;22.13;2.75;;;12.80;99.90;;;;;;4265957;27;20043;-61
2023/10/27 05:36:58;;;;;;;19.13;3.40;;;12.80;99.90;;;;;;4266209;27;20095;-60
2023/10/27 05:39:00;;;;;;;14.48;3.40;;;12.80;99.90;;;;;;4266196;27;20404;-60
2023/10/27 05:41:03;;;;;;;18.25;3.88;;;12.80;99.90;;;;;;4265730;27;20080;-60
2023/10/27 05:43:05;;;;;;;13.10;2.83;;;12.80;99.90;;;;;;4265685;27;20512;-60
2023/10/27 05:45:11;;;;;;;14.00;3.05;;;12.80;99.90;;;;;;4265253;27;20050;-59
2023/10/27 05:47:15;;;;;;;13.70;2.92;;;12.80;99.90;;;;;;4265651;27;20043;-59
2023/10/27 05:49:18;;;;;;;18.90;3.47;;;12.80;99.90;;;;;;4266050;27;20042;-60
2023/10/27 05:51:20;;;;;;;13.75;3.63;;;12.80;99.90;;;;;;4265765;27;20047;-59
2023/10/27 05:53:25;;;;;;;18.52;3.60;;;12.80;99.90;;;;;;4265455;27;20043;-59
2023/10/27 05:55:27;;;;;;;14.38;3.10;;;12.80;99.90;;;;;;4265931;27;20050;-59
2023/10/27 05:57:29;;;;;;;21.05;3.28;;;12.80;99.90;;;;;;4265838;27;20066;-57
2023/10/27 05:59:31;;;;;;;13.00;3.15;;;12.80;99.90;;;;;;4265580;27;20049;-63
2023/10/27 06:01:35;;;;;;;11.98;2.88;;;12.80;99.90;;;;;;4265424;27;20043;-59
2023/10/27 06:03:37;;;;;;;12.07;2.47;;;12.80;99.90;;;;;;4265591;27;20046;-59
2023/10/27 06:05:40;;;;;;;17.73;3.60;;;12.80;99.90;;;;;;4265272;27;20046;-60
2023/10/27 06:07:42;;;;;;;14.82;3.20;;;12.80;99.90;;;;;;4265522;27;20119;-59
2023/10/27 06:09:44;;;;;;;15.77;3.45;;;12.80;99.90;;;;;;4265392;27;20066;-59
2023/10/27 06:11:47;;;;;;;19.70;3.78;;;12.70;99.90;;;;;;4265480;27;20155;-59
2023/10/27 06:13:49;;;;;;;14.90;3.03;;;12.70;99.90;;;;;;4264976;27;20042;-58
2023/10/27 06:15:51;;;;;;;12.23;3.08;;;12.80;99.90;;;;;;4265343;27;20043;-60
2023/10/27 06:17:54;;;;;;;14.60;3.33;;;12.80;99.90;;;;;;4265147;27;20100;-59
2023/10/27 06:19:56;;;;;;;15.52;3.60;;;12.80;99.90;;;;;;4265427;27;20051;-64
2023/10/27 06:22:14;;;;;;;18.25;3.08;;;12.70;99.90;;;;;;4265511;27;20050;-59
2023/10/27 06:24:16;;;;;;;14.68;2.97;;;12.70;99.90;;;;;;4265073;27;20051;-59
2023/10/27 06:26:19;;;;;;;13.13;3.13;;;12.70;99.90;;;;;;4246234;27;20077;-59
2023/10/27 06:28:21;;;;;;;18.58;2.97;;;12.70;99.90;;;;;;4264649;27;20427;-59
2023/10/27 06:30:23;;;;;;;13.95;3.08;;;12.70;99.90;;;;;;4265047;27;20042;-59
2023/10/27 06:32:25;;;;;;;14.52;2.80;;;12.70;99.90;;;;;;4265110;27;20484;-59
2023/10/27 06:34:28;;;;;;;19.08;3.05;;;12.70;99.90;;;;;;4264858;27;20049;-59
2023/10/27 06:36:32;;;;;;;21.75;3.13;;;12.60;99.90;;;;;;4265033;27;20074;-59
2023/10/27 06:38:34;;;;;;;17.73;3.15;;;12.60;99.90;;;;;;4246658;27;20473;-60
2023/10/27 06:40:36;;;;;;;17.98;3.30;;;12.70;99.90;;;;;;4265043;27;20042;-60
2023/10/27 06:42:38;;;;;;;14.77;2.95;;;12.70;99.90;;;;;;4264983;27;20066;-58
2023/10/27 06:44:40;;;;;;;14.80;3.25;;;12.70;99.90;;;;;;4265395;27;20051;-58
2023/10/27 06:46:44;;;;;;;12.88;2.80;;;12.70;99.90;;;;;;4264973;27;20043;-58
2023/10/27 06:48:46;;;;;;;17.58;3.40;;;12.70;99.90;;;;;;4264939;27;20100;-59
2023/10/27 06:50:50;;;;;;;15.82;2.92;;;12.70;99.90;;;;;;4265097;27;20541;-59
2023/10/27 06:52:52;;;;;;;10.05;2.22;;;12.70;99.90;;;;;;4264923;27;20077;-60
2023/10/27 06:54:54;;;;;;;15.93;3.05;;;12.70;99.90;;;;;;4264616;27;20115;-59
2023/10/27 06:56:56;;;;;;;21.08;3.70;;;12.60;99.90;;;;;;4264571;27;20046;-59
2023/10/27 06:58:58;;;;;;;15.00;3.28;;;12.70;99.90;;;;;;4264507;27;20050;-59
2023/10/27 07:01:05;;;;;;;13.50;2.53;;;12.70;99.90;;;;;;4264830;27;20039;-64
2023/10/27 07:03:08;;;;;;;18.60;3.67;;;12.60;99.90;;;;;;4264855;27;20106;-60
2023/10/27 07:05:29;;;;;;;14.60;3.28;;;12.60;99.90;;;;;;4264741;27;20125;-58
2023/10/27 07:07:33;;;;;;;13.60;2.42;;;12.70;99.90;;;;;;4264326;27;20043;-59
2023/10/27 07:09:35;;;;;;;13.30;2.55;;;12.70;99.90;;;;;;4246304;27;20552;-59
2023/10/27 07:11:38;;;;;;;13.75;2.60;;;12.70;99.90;;;;;;4264259;27;20043;-59
2023/10/27 07:13:40;;;;;;;9.80;2.72;;;12.70;99.90;;;;;;4264435;27;20096;-59
2023/10/27 07:15:43;;;;;;;15.30;3.05;;;12.70;99.90;;;;;;4264491;27;20042;-59
2023/10/27 07:17:45;;;;;;;14.00;2.45;;;12.70;99.90;;;;;;4264201;27;20038;-58
2023/10/27 07:19:47;;;;;;;15.90;2.90;;;12.70;99.90;;;;;;4264356;27;20043;-62
2023/10/27 07:21:49;;;;;;;18.20;3.10;;;12.70;99.90;;;;;;4264351;27;20049;-59
2023/10/27 07:23:53;;;;;;;14.32;3.05;;;12.80;99.90;;;;;;4264599;27;20126;-58
2023/10/27 07:25:55;;;;;;;14.75;2.95;;;12.80;99.90;;;;;;4264356;27;20134;-59
2023/10/27 07:27:57;;;;;;;11.00;2.78;;;12.80;99.90;;;;;;4264262;27;20045;-58
2023/10/27 07:30:00;;;;;;;14.55;3.33;;;12.80;99.90;;;;;;4264474;27;20051;-58
2023/10/27 07:32:03;;;;;;;12.35;2.30;;;12.90;99.90;;;;;;4263923;27;20146;-60
2023/10/27 07:34:05;;;;;;;11.30;2.80;;;12.90;99.90;;;;;;4264371;27;20050;-59
2023/10/27 07:36:08;;;;;;;12.15;3.28;;;12.90;99.90;;;;;;4245971;27;20662;-59
2023/10/27 07:38:10;;;;;;;9.55;2.65;;;12.90;99.90;;;;;;4266570;27;20047;-59
2023/10/27 07:40:15;;;;;;;10.45;2.33;;;13.00;99.90;;;;;;4267631;27;20096;-58
2023/10/27 07:42:17;;;;;;;11.60;2.80;;;13.00;99.90;;;;;;4267657;27;20055;-60
2023/10/27 07:44:20;;;;;;;12.32;2.72;;;13.00;99.90;;;;;;4267885;27;20057;-59
2023/10/27 07:46:22;;;;;;;15.45;2.90;;;13.00;99.90;;;;;;4267940;27;20066;-60
2023/10/27 07:48:24;;;;;;;15.82;2.80;;;13.00;99.90;;;;;;4262879;27;20085;-60
2023/10/27 07:50:26;;;;;;;15.13;3.40;;;13.10;99.90;;;;;;4267749;27;20062;-61
2023/10/27 07:52:28;;;;;;;12.30;2.58;;;13.10;99.90;;;;;;4267805;27;20050;-59
2023/10/27 07:54:30;;;;;;;17.08;3.20;;;13.30;99.90;;;;;;4267712;27;20047;-60
2023/10/27 07:56:34;;;;;;;12.88;3.08;;;13.30;99.90;;;;;;4258805;27;20092;-59
2023/10/27 07:58:36;;;;;;;14.50;2.95;;;13.40;99.90;;;;;;4250168;27;20043;-59
2023/10/27 08:00:39;;;;;;;13.35;3.03;;;13.40;99.90;;;;;;4250080;27;20051;-69
2023/10/27 08:02:41;;;;;;;11.18;2.55;;;13.40;99.90;;;;;;4250411;27;20039;-59
2023/10/27 08:04:43;;;;;;;14.80;3.17;;;13.40;99.90;;;;;;4250065;27;20039;-59
2023/10/27 08:06:45;;;;;;;14.25;2.83;;;13.50;99.90;;;;;;4250331;27;20097;-65
2023/10/27 08:08:47;;;;;;;10.93;2.40;;;13.60;99.90;;;;;;4250225;27;20122;-59
2023/10/27 08:10:49;;;;;;;17.80;3.30;;;13.60;99.90;;;;;;4250009;27;20051;-59
2023/10/27 08:12:53;;;;;;;13.57;2.90;;;13.60;99.90;;;;;;4250122;27;20118;-59
2023/10/27 08:14:55;;;;;;;18.15;3.70;;;13.70;99.90;;;;;;4250094;27;20135;-59
2023/10/27 08:16:57;;;;;;;16.02;3.22;;;13.70;99.90;;;;;;4250114;27;20048;-59
2023/10/27 08:18:59;;;;;;;20.00;3.70;;;13.70;99.90;;;;;;4284363;27;20046;-59
2023/10/27 08:21:01;;;;;;;14.48;3.00;;;13.70;99.90;;;;;;4284383;27;20095;-59
2023/10/27 08:23:03;;;;;;;13.18;2.65;;;13.70;99.90;;;;;;4284459;27;20042;-59
2023/10/27 08:25:06;;;;;;;14.48;2.58;;;13.70;99.90;;;;;;4284022;27;20050;-59
2023/10/27 08:27:12;;;;;;;17.30;2.95;;;13.70;99.90;;;;;;4284582;27;20101;-59
2023/10/27 08:29:15;;;;;;;17.52;3.00;;;13.70;99.90;;;;;;4284362;27;20050;-59
2023/10/27 08:31:17;;;;;;;12.63;2.53;;;13.70;99.90;;;;;;4284272;27;20046;-59
2023/10/27 08:33:20;;;;;;;16.98;2.25;;;13.70;99.90;;;;;;4284208;27;20057;-59
2023/10/27 08:35:22;;;;;;;12.63;3.35;;;13.70;99.90;;;;;;4284464;27;20046;-59
2023/10/27 08:37:25;;;;;;;15.32;3.28;;;13.80;99.90;;;;;;4284299;27;20050;-59
2023/10/27 08:39:28;;;;;;;10.00;2.63;;;13.70;99.90;;;;;;4283865;27;20042;-58
2023/10/27 08:41:30;;;;;;;12.60;2.50;;;13.80;99.90;;;;;;4283957;27;20058;-59
2023/10/27 08:43:33;;;;;;;16.92;3.03;;;13.80;99.90;;;;;;4284201;27;20110;-59
2023/10/27 08:45:37;;;;;;;14.35;3.17;;;13.90;99.90;;;;;;4283824;27;20038;-59
2023/10/27 08:47:39;;;;;;;13.73;2.92;;;13.90;99.90;;;;;;4283925;27;20072;-62
2023/10/27 08:49:46;;;;;;;14.50;3.38;;;13.90;99.90;;;;;;4284301;27;20492;-67
2023/10/27 08:51:48;;;;;;;10.38;2.58;;;13.90;99.90;;;;;;4283895;27;20423;-59
2023/10/27 08:53:51;;;;;;;17.50;3.70;;;13.90;99.90;;;;;;4283705;27;20445;-61
2023/10/27 08:55:53;;;;;;;12.90;2.70;;;13.90;99.90;;;;;;4284060;27;20050;-59
2023/10/27 08:57:56;;;;;;;11.52;3.08;;;13.90;99.90;;;;;;4283941;27;20073;-59
2023/10/27 08:59:58;;;;;;;11.93;2.22;;;14.00;99.90;;;;;;4283716;27;20125;-60
2023/10/27 09:02:02;;;;;;;17.95;2.63;;;14.00;99.90;;;;;;4283937;27;20079;-58
2023/10/27 09:04:09;;;;;;;14.95;3.15;;;14.00;99.90;;;;;;4283915;27;20042;-60
2023/10/27 09:06:13;;;;;;;11.48;2.72;;;14.10;99.90;;;;;;4284012;27;20046;-60
2023/10/27 09:08:17;;;;;;;13.35;2.78;;;14.10;99.90;;;;;;4283646;27;20115;-60
2023/10/27 09:10:20;;;;;;;;;;;14.10;99.90;;;;;;4284339;27;20081;-62
2023/10/27 09:12:23;;;;;;;18.13;3.53;;;14.10;99.90;;;;;;4284957;27;19925;-60
2023/10/27 09:14:30;;;;;;;15.93;3.47;;;14.10;99.90;;;;;;4284355;27;20396;-58
2023/10/27 09:16:34;;;;;;;14.88;3.40;;;14.20;99.90;;;;;;4283925;27;20117;-59
2023/10/27 09:18:38;;;;;;;20.25;3.33;;;14.20;99.90;;;;;;4283554;27;20046;-59
2023/10/27 09:20:48;;;;;;;10.00;2.60;;;14.20;99.90;;;;;;4283545;27;20047;-59
2023/10/27 09:22:57;;;;;;;21.05;3.10;;;14.10;99.90;;;;;;4283308;27;20046;-59
2023/10/27 09:25:13;;;;;;;11.55;2.85;;;14.10;99.90;;;;;;4283421;27;20042;-61
2023/10/27 09:27:26;;;;;;;12.95;3.40;;;14.10;99.90;;;;;;4283555;27;20399;-59
2023/10/27 09:29:31;;;;;;;16.25;3.22;;;14.20;99.90;;;;;;4283095;27;20042;-58
2023/10/27 09:31:34;;;;;;;13.77;2.92;;;14.20;99.90;;;;;;4283656;27;20038;-63
2023/10/27 09:33:37;;;;;;;21.48;4.07;;;14.20;99.90;;;;;;4283100;27;20042;-60
2023/10/27 09:35:41;;;;;;;19.52;4.80;;;14.20;99.90;;;;;;4283320;27;20062;-59
2023/10/27 09:37:43;;;;;;;27.85;9.63;;;14.20;99.90;;;;;;4283064;27;20076;-63
2023/10/27 09:39:45;;;;;;;18.67;4.38;;;14.30;99.90;;;;;;4283446;27;20505;-59
2023/10/27 09:41:55;;;;;;;18.35;3.63;;;14.40;99.90;;;;;;4283248;27;20141;-58
2023/10/27 09:43:58;;;;;;;19.65;5.78;;;14.40;99.90;;;;;;4283372;27;20094;-59
2023/10/27 09:46:04;;;;;;;13.25;3.72;;;14.50;99.90;;;;;;4282800;27;20053;-62
2023/10/27 09:48:07;;;;;;;11.65;2.88;;;14.40;99.90;;;;;;4283156;27;20077;-59
2023/10/27 09:50:13;;;;;;;18.98;4.40;;;14.50;99.90;;;;;;4283112;27;20073;-59
2023/10/27 09:52:19;;;;;;;16.85;3.78;;;14.50;99.90;;;;;;4283461;27;20077;-59
2023/10/27 09:54:21;;;;;;;19.40;4.82;;;14.60;99.90;;;;;;4283194;27;20411;-59
2023/10/27 09:56:26;;;;;;;18.77;3.47;;;14.70;99.90;;;;;;4283569;27;20616;-62
2023/10/27 09:58:30;;;;;;;17.40;5.03;;;14.70;99.90;;;;;;4283283;27;20070;-59
2023/10/27 10:00:34;;;;;;;22.20;6.90;;;14.80;99.90;;;;;;4282342;27;20407;-59
2023/10/27 10:02:37;;;;;;;17.08;5.50;;;14.80;99.90;;;;;;4282994;27;20129;-59
2023/10/27 10:05:00;;;;;;;16.55;4.50;;;14.80;99.90;;;;;;4282721;27;20090;-59
2023/10/27 10:07:10;;;;;;;20.08;3.85;;;14.90;99.90;;;;;;4282582;27;20152;-60
2023/10/27 10:09:14;;;;;;;23.33;4.25;;;14.90;99.90;;;;;;4283064;27;20883;-59
2023/10/27 10:11:18;;;;;;;17.30;3.58;;;14.90;99.90;;;;;;4283611;27;20043;-60
2023/10/27 10:13:36;;;;;;;17.45;3.55;;;14.80;99.90;;;;;;4283004;27;20497;-59
2023/10/27 10:15:40;;;;;;;15.90;3.63;;;14.90;99.90;;;;;;4282892;27;20049;-59
2023/10/27 10:17:43;;;;;;;18.63;3.50;;;14.90;99.90;;;;;;4282571;27;20073;-61
2023/10/27 10:19:51;;;;;;;13.10;3.65;;;14.90;99.90;;;;;;4282189;27;20038;-58
2023/10/27 10:21:54;;;;;;;16.35;3.35;;;15.00;99.90;;;;;;4283204;27;20050;-59
2023/10/27 10:24:08;;;;;;;17.50;3.85;;;15.00;99.90;;;;;;4282834;27;20471;-58
2023/10/27 10:26:10;;;;;;;17.33;3.58;;;15.10;99.90;;;;;;4282533;27;20136;-59
2023/10/27 10:28:29;;;;;;;15.75;3.60;;;15.00;99.90;;;;;;4282755;27;20042;-68
2023/10/27 10:30:31;;;;;;;13.18;3.83;;;15.00;99.90;;;;;;4283157;27;20042;-62
2023/10/27 10:32:35;;;;;;;18.95;3.78;;;15.00;99.90;;;;;;4282653;27;20145;-58
2023/10/27 10:34:37;;;;;;;15.48;3.65;;;15.00;99.90;;;;;;4282004;27;20518;-58
2023/10/27 10:36:40;;;;;;;12.73;3.08;;;15.00;99.90;;;;;;4258890;27;20043;-58